createdAt,value
2022-08-02T00:01:49.879Z,11.61
2022-08-02T00:04:17.841Z,11.77
2022-08-02T00:06:48.040Z,11.51
2022-08-02T00:09:17.212Z,11.61
2022-08-02T00:11:49.445Z,11.77
2022-08-02T00:14:17.389Z,11.64
2022-08-02T00:16:45.811Z,11.66
2022-08-02T00:19:13.671Z,11.65
2022-08-02T00:21:41.596Z,11.58
2022-08-02T00:24:29.325Z,11.74
2022-08-02T00:27:00.110Z,11.79
2022-08-02T00:29:28.146Z,11.80
2022-08-02T00:31:56.918Z,11.69
2022-08-02T00:34:28.314Z,11.56
2022-08-02T00:36:59.880Z,11.46
2022-08-02T00:43:12.984Z,11.57
2022-08-02T00:46:02.173Z,11.57
2022-08-02T00:48:31.032Z,11.76
2022-08-02T00:51:00.646Z,11.80
2022-08-02T00:53:28.776Z,11.53
2022-08-02T00:55:57.162Z,11.37
2022-08-02T00:58:30.150Z,11.29
2022-08-02T01:01:01.086Z,11.21
2022-08-02T01:03:29.054Z,11.28
2022-08-02T01:06:11.071Z,11.41
2022-08-02T01:08:39.926Z,11.41
2022-08-02T01:11:09.854Z,11.32
2022-08-02T01:13:39.325Z,11.51
2022-08-02T01:16:14.263Z,11.49
2022-08-02T01:18:47.151Z,11.59
2022-08-02T01:21:44.220Z,11.47
2022-08-02T01:24:22.788Z,11.41
2022-08-02T01:26:54.775Z,11.49
2022-08-02T01:29:28.588Z,11.65
2022-08-02T01:32:03.047Z,11.58
2022-08-02T01:34:35.849Z,11.48
2022-08-02T01:38:04.857Z,11.41
2022-08-02T01:40:36.301Z,11.52
2022-08-02T01:46:48.061Z,11.63
2022-08-02T01:49:19.840Z,11.73
2022-08-02T01:52:06.230Z,11.59
2022-08-02T01:54:34.733Z,11.69
2022-08-02T01:57:05.917Z,11.59
2022-08-02T01:59:35.308Z,11.44
2022-08-02T02:03:04.726Z,11.45
2022-08-02T02:05:35.432Z,11.39
2022-08-02T02:08:05.676Z,11.28
2022-08-02T02:10:35.864Z,11.14
2022-08-02T02:13:06.715Z,11.13
2022-08-02T02:15:36.433Z,11.08
2022-08-02T02:18:12.986Z,11.03
2022-08-02T02:20:43.415Z,10.91
2022-08-02T02:23:11.559Z,11.10
2022-08-02T02:25:46.542Z,11.34
2022-08-02T02:28:16.376Z,10.93
2022-08-02T02:34:29.097Z,10.64
2022-08-02T02:37:01.460Z,10.57
2022-08-02T02:39:30.462Z,10.79
2022-08-02T02:42:03.218Z,10.87
2022-08-02T02:44:32.375Z,10.72
2022-08-02T02:47:01.574Z,10.59
2022-08-02T02:49:30.430Z,10.49
2022-08-02T02:52:01.284Z,10.42
2022-08-02T02:54:34.595Z,10.42
2022-08-02T02:57:05.180Z,10.42
2022-08-02T02:59:34.312Z,10.58
2022-08-02T03:02:03.913Z,10.48
2022-08-02T03:04:56.507Z,10.59
2022-08-02T03:07:22.121Z,10.54
2022-08-02T03:09:54.192Z,10.80
2022-08-02T03:13:33.098Z,10.46
2022-08-02T03:16:04.495Z,10.50
2022-08-02T03:18:33.537Z,10.39
2022-08-02T03:21:03.219Z,10.28
2022-08-02T03:23:34.684Z,10.18
2022-08-02T03:26:03.561Z,10.54
2022-08-02T03:28:33.099Z,10.56
2022-08-02T03:31:02.657Z,10.70
2022-08-02T03:33:32.042Z,10.68
2022-08-02T03:36:02.542Z,10.51
2022-08-02T03:38:33.674Z,10.38
2022-08-02T03:41:02.569Z,10.42
2022-08-02T03:43:30.544Z,10.13
2022-08-02T03:47:00.064Z,10.43
2022-08-02T03:49:28.263Z,10.30
2022-08-02T03:51:57.228Z,10.46
2022-08-02T03:54:32.971Z,10.38
2022-08-02T03:57:04.233Z,10.46
2022-08-02T03:59:43.017Z,10.23
2022-08-02T04:02:11.848Z,10.12
2022-08-02T04:04:40.684Z,10.17
2022-08-02T04:07:08.605Z,10.40
2022-08-02T04:09:38.350Z,10.24
2022-08-02T04:12:06.840Z,10.44
2022-08-02T04:14:35.631Z,10.61
2022-08-02T04:17:08.748Z,10.60
2022-08-02T04:19:39.631Z,10.66
2022-08-02T04:22:09.775Z,10.67
2022-08-02T04:24:41.582Z,10.77
2022-08-02T04:27:49.342Z,10.87
2022-08-02T04:30:00.527Z,10.72
2022-08-02T04:32:28.618Z,10.77
2022-08-02T04:38:09.936Z,10.88
2022-08-02T04:40:36.948Z,11.15
2022-08-02T04:43:06.874Z,11.28
2022-08-02T04:45:35.538Z,11.41
2022-08-02T04:48:05.562Z,11.42
2022-08-02T04:50:33.920Z,11.57
2022-08-02T04:53:01.720Z,11.62
2022-08-02T04:55:30.137Z,11.65
2022-08-02T04:58:04.063Z,11.83
2022-08-02T05:00:35.274Z,11.92
2022-08-02T05:03:04.056Z,12.05
2022-08-02T05:05:32.612Z,12.23
2022-08-02T05:08:00.700Z,12.49
2022-08-02T05:10:29.719Z,12.65
2022-08-02T05:12:59.982Z,12.95
2022-08-02T05:15:31.625Z,13.03
2022-08-02T05:18:03.037Z,13.24
2022-08-02T05:20:30.914Z,13.34
2022-08-02T05:23:00.587Z,13.41
2022-08-02T05:25:28.453Z,13.32
2022-08-02T05:27:56.985Z,13.43
2022-08-02T05:30:28.705Z,13.53
2022-08-02T05:32:56.565Z,13.61
2022-08-02T05:35:26.040Z,13.74
2022-08-02T05:37:54.541Z,13.76
2022-08-02T05:40:25.729Z,13.78
2022-08-02T05:42:54.938Z,14.01
2022-08-02T05:45:23.011Z,13.97
2022-08-02T05:47:52.647Z,14.25
2022-08-02T05:50:24.411Z,14.31
2022-08-02T05:53:00.762Z,14.23
2022-08-02T05:55:30.030Z,14.58
2022-08-02T05:58:04.329Z,14.63
2022-08-02T06:00:35.404Z,14.79
2022-08-02T06:04:04.546Z,15.00
2022-08-02T06:06:35.320Z,15.20
2022-08-02T06:09:06.891Z,15.35
2022-08-02T06:11:38.066Z,15.49
2022-08-02T06:14:07.201Z,15.57
2022-08-02T06:16:37.668Z,15.79
2022-08-02T06:19:10.227Z,16.02
2022-08-02T06:22:32.907Z,16.12
2022-08-02T06:24:28.290Z,16.20
2022-08-02T06:26:57.323Z,16.45
2022-08-02T06:29:25.798Z,16.35
2022-08-02T06:31:54.558Z,16.63
2022-08-02T06:34:22.164Z,16.39
2022-08-02T06:36:57.103Z,16.50
2022-08-02T06:39:30.193Z,16.59
2022-08-02T06:42:00.012Z,16.87
2022-08-02T06:44:49.800Z,16.82
2022-08-02T06:47:15.247Z,16.99
2022-08-02T06:49:51.940Z,16.98
2022-08-02T06:52:28.875Z,17.23
2022-08-02T06:54:58.599Z,17.28
2022-08-02T06:57:26.201Z,17.41
2022-08-02T06:59:53.775Z,17.55
2022-08-02T07:02:21.671Z,17.79
2022-08-02T07:04:49.445Z,17.91
2022-08-02T07:07:16.989Z,18.29
2022-08-02T07:09:56.921Z,18.45
2022-08-02T07:12:29.750Z,18.29
2022-08-02T07:14:57.963Z,18.25
2022-08-02T07:17:25.505Z,18.59
2022-08-02T07:19:53.103Z,18.42
2022-08-02T07:22:23.472Z,18.49
2022-08-02T07:24:52.931Z,18.62
2022-08-02T07:27:20.609Z,18.60
2022-08-02T07:29:48.291Z,18.63
2022-08-02T07:32:16.390Z,18.74
2022-08-02T07:34:50.317Z,18.94
2022-08-02T07:37:26.250Z,18.97
2022-08-02T07:40:14.115Z,19.28
2022-08-02T07:42:43.460Z,19.12
2022-08-02T07:45:12.493Z,19.16
2022-08-02T07:47:40.838Z,19.50
2022-08-02T07:50:09.726Z,19.71
2022-08-02T07:52:37.315Z,19.61
2022-08-02T07:55:05.450Z,19.54
2022-08-02T07:57:34.585Z,20.03
2022-08-02T08:00:02.218Z,20.07
2022-08-02T08:02:29.766Z,19.86
2022-08-02T08:04:58.196Z,20.21
2022-08-02T08:07:25.793Z,20.54
2022-08-02T08:09:53.659Z,21.26
2022-08-02T08:12:24.293Z,20.89
2022-08-02T08:14:53.357Z,20.92
2022-08-02T08:17:20.928Z,20.86
2022-08-02T08:19:51.048Z,21.01
2022-08-02T08:22:19.461Z,21.26
2022-08-02T08:24:47.943Z,20.94
2022-08-02T08:27:15.717Z,21.19
2022-08-02T08:29:43.724Z,21.46
2022-08-02T08:32:17.515Z,21.22
2022-08-02T08:34:46.140Z,21.15
2022-08-02T08:37:16.578Z,21.60
2022-08-02T08:39:58.302Z,21.20
2022-08-02T08:42:27.348Z,21.25
2022-08-02T08:44:57.378Z,21.42
2022-08-02T08:47:33.635Z,21.97
2022-08-02T08:50:03.113Z,22.26
2022-08-02T08:52:33.723Z,22.27
2022-08-02T08:55:01.831Z,22.20
2022-08-02T08:57:30.564Z,22.67
2022-08-02T08:59:58.224Z,22.46
2022-08-02T09:02:30.661Z,22.36
2022-08-02T09:04:58.362Z,22.47
2022-08-02T09:07:25.890Z,22.80
2022-08-02T09:09:53.484Z,22.87
2022-08-02T09:12:25.209Z,23.13
2022-08-02T09:14:53.206Z,23.15
2022-08-02T09:17:22.140Z,23.28
2022-08-02T09:20:07.717Z,23.44
2022-08-02T09:22:35.336Z,23.01
2022-08-02T09:25:02.879Z,23.08
2022-08-02T09:27:37.035Z,23.05
2022-08-02T09:30:13.150Z,23.35
2022-08-02T09:32:49.756Z,23.31
2022-08-02T09:38:13.081Z,23.35
2022-08-02T09:40:42.161Z,23.62
2022-08-02T09:43:10.488Z,23.56
2022-08-02T09:45:38.195Z,24.36
2022-08-02T09:48:08.632Z,24.32
2022-08-02T09:50:37.196Z,24.34
2022-08-02T09:53:05.296Z,24.18
2022-08-02T09:55:34.308Z,24.59
2022-08-02T09:58:18.107Z,23.87
2022-08-02T10:00:54.394Z,23.86
2022-08-02T10:03:22.946Z,24.00
2022-08-02T10:05:56.228Z,24.61
2022-08-02T10:08:33.133Z,24.24
2022-08-02T10:11:05.656Z,24.41
2022-08-02T10:13:37.255Z,24.72
2022-08-02T10:16:06.270Z,25.02
2022-08-02T10:18:39.779Z,25.13
2022-08-02T10:21:09.558Z,25.38
2022-08-02T10:23:40.616Z,25.08
2022-08-02T10:26:15.716Z,24.93
2022-08-02T10:28:44.223Z,25.01
2022-08-02T10:31:13.179Z,25.34
2022-08-02T10:33:41.904Z,25.43
2022-08-02T10:36:10.198Z,25.61
2022-08-02T10:38:38.418Z,25.52
2022-08-02T10:41:08.256Z,25.62
2022-08-02T10:43:49.332Z,25.19
2022-08-02T10:46:25.098Z,25.45
2022-08-02T10:52:07.708Z,25.96
2022-08-02T10:54:38.547Z,26.41
2022-08-02T10:57:16.430Z,26.64
2022-08-02T10:59:46.062Z,27.19
2022-08-02T11:02:14.476Z,27.41
2022-08-02T11:05:06.201Z,27.02
2022-08-02T11:07:37.136Z,27.14
2022-08-02T11:10:30.338Z,26.81
2022-08-02T11:13:00.725Z,26.25
2022-08-02T11:15:32.482Z,26.77
2022-08-02T11:18:01.032Z,26.44
2022-08-02T11:20:29.117Z,26.63
2022-08-02T11:22:57.281Z,26.94
2022-08-02T11:26:00.890Z,26.95
2022-08-02T11:28:24.587Z,27.24
2022-08-02T11:30:59.050Z,26.82
2022-08-02T11:33:32.443Z,26.85
2022-08-02T11:36:05.666Z,26.99
2022-08-02T11:38:33.628Z,27.59
2022-08-02T11:41:09.455Z,27.32
2022-08-02T11:43:39.499Z,27.84
2022-08-02T11:47:08.836Z,27.69
2022-08-02T11:49:39.807Z,27.52
2022-08-02T11:52:11.517Z,27.89
2022-08-02T11:54:41.467Z,27.37
2022-08-02T11:57:19.395Z,27.40
2022-08-02T11:59:50.232Z,27.54
2022-08-02T12:02:20.062Z,27.41
2022-08-02T12:04:57.375Z,28.05
2022-08-02T12:07:35.153Z,27.44
2022-08-02T12:10:06.276Z,27.42
2022-08-02T12:12:35.337Z,27.40
2022-08-02T12:15:03.390Z,27.17
2022-08-02T12:17:48.981Z,27.38
2022-08-02T12:20:18.565Z,27.93
2022-08-02T12:22:47.008Z,27.95
2022-08-02T12:25:33.538Z,28.31
2022-08-02T12:28:20.406Z,28.00
2022-08-02T12:30:53.370Z,28.20
2022-08-02T12:33:22.427Z,28.53
2022-08-02T12:35:51.989Z,28.10
2022-08-02T12:38:20.841Z,28.20
2022-08-02T12:40:48.861Z,28.58
2022-08-02T12:43:21.441Z,29.28
2022-08-02T12:45:51.514Z,28.86
2022-08-02T12:48:37.136Z,29.41
2022-08-02T12:51:22.833Z,29.22
2022-08-02T12:53:59.893Z,29.60
2022-08-02T12:56:30.359Z,29.57
2022-08-02T12:58:59.752Z,29.29
2022-08-02T13:01:28.920Z,29.24
2022-08-02T13:04:09.459Z,29.12
2022-08-02T13:06:44.529Z,29.17
2022-08-02T13:09:15.390Z,29.44
2022-08-02T13:11:43.993Z,29.73
2022-08-02T13:14:12.732Z,29.52
2022-08-02T13:16:41.662Z,30.25
2022-08-02T13:19:09.533Z,30.52
2022-08-02T13:21:41.605Z,29.35
2022-08-02T13:24:38.334Z,29.48
2022-08-02T13:27:08.663Z,29.95
2022-08-02T13:29:36.925Z,29.44
2022-08-02T13:32:04.949Z,30.13
2022-08-02T13:34:32.750Z,30.09
2022-08-02T13:37:03.708Z,30.22
2022-08-02T13:39:33.018Z,31.34
2022-08-02T13:42:00.755Z,30.99
2022-08-02T13:44:29.743Z,30.93
2022-08-02T13:47:00.094Z,32.26
2022-08-02T13:49:51.327Z,32.54
2022-08-02T13:52:17.282Z,31.72
2022-08-02T13:54:46.672Z,31.93
2022-08-02T13:57:14.519Z,31.56
2022-08-02T13:59:55.954Z,32.74
2022-08-02T14:02:28.368Z,31.51
2022-08-02T14:04:57.168Z,32.37
2022-08-02T14:07:24.841Z,32.12
2022-08-02T14:09:54.117Z,32.19
2022-08-02T14:12:22.088Z,32.88
2022-08-02T14:14:49.733Z,32.85
2022-08-02T14:17:18.780Z,33.19
2022-08-02T14:19:46.625Z,33.22
2022-08-02T14:22:14.415Z,33.51
2022-08-02T14:24:42.634Z,32.40
2022-08-02T14:27:11.921Z,33.04
2022-08-02T14:29:40.411Z,32.47
2022-08-02T14:32:08.839Z,32.70
2022-08-02T14:34:36.666Z,32.57
2022-08-02T14:37:04.785Z,34.42
2022-08-02T14:39:43.321Z,33.35
2022-08-02T14:42:25.049Z,34.72
2022-08-02T14:44:54.670Z,33.52
2022-08-02T14:47:22.420Z,33.59
2022-08-02T14:49:57.837Z,33.63
2022-08-02T14:52:25.900Z,32.93
2022-08-02T14:54:53.877Z,32.36
2022-08-02T14:57:25.315Z,33.05
2022-08-02T14:59:53.223Z,34.15
2022-08-02T15:02:21.184Z,34.26
2022-08-02T15:04:49.066Z,33.98
2022-08-02T15:07:17.924Z,35.30
2022-08-02T15:09:45.983Z,34.42
2022-08-02T15:12:15.553Z,32.95
2022-08-02T15:14:47.996Z,33.79
2022-08-02T15:17:15.972Z,33.86
2022-08-02T15:19:57.695Z,34.58
2022-08-02T15:22:28.871Z,34.32
2022-08-02T15:24:56.921Z,34.64
2022-08-02T15:27:25.190Z,34.04
2022-08-02T15:30:00.692Z,34.84
2022-08-02T15:32:29.776Z,34.87
2022-08-02T15:34:58.224Z,33.51
2022-08-02T15:37:30.807Z,33.50
2022-08-02T15:40:00.316Z,35.15
2022-08-02T15:42:30.705Z,34.61
2022-08-02T15:45:01.319Z,34.69
2022-08-02T15:47:29.525Z,36.09
2022-08-02T15:49:58.622Z,35.27
2022-08-02T15:52:27.547Z,35.14
2022-08-02T15:54:55.746Z,35.81
2022-08-02T15:57:24.288Z,35.35
2022-08-02T15:59:53.219Z,34.94
2022-08-02T16:02:22.674Z,35.69
2022-08-02T16:04:50.419Z,34.91
2022-08-02T16:07:18.074Z,36.12
2022-08-02T16:09:45.816Z,37.33
2022-08-02T16:12:13.911Z,35.11
2022-08-02T16:14:41.882Z,35.81
2022-08-02T16:17:09.703Z,35.25
2022-08-02T16:19:48.753Z,35.41
2022-08-02T16:22:18.680Z,35.39
2022-08-02T16:24:47.741Z,35.46
2022-08-02T16:27:15.716Z,35.28
2022-08-02T16:29:43.622Z,35.12
2022-08-02T16:32:12.406Z,34.81
2022-08-02T16:35:07.211Z,33.79
2022-08-02T16:37:51.925Z,33.56
2022-08-02T16:40:18.065Z,35.49
2022-08-02T16:42:50.190Z,35.51
2022-08-02T16:45:21.408Z,36.06
2022-08-02T16:47:54.960Z,35.77
2022-08-02T16:50:28.298Z,32.89
2022-08-02T16:52:58.060Z,31.99
2022-08-02T16:55:29.221Z,33.77
2022-08-02T16:58:01.053Z,33.53
2022-08-02T17:00:29.867Z,35.46
2022-08-02T17:05:56.566Z,35.39
2022-08-02T17:08:31.745Z,34.27
2022-08-02T17:11:03.676Z,34.92
2022-08-02T17:13:32.165Z,33.32
2022-08-02T17:16:20.759Z,33.86
2022-08-02T17:18:50.451Z,34.86
2022-08-02T17:21:19.942Z,33.38
2022-08-02T17:24:04.994Z,32.00
2022-08-02T17:26:38.202Z,32.10
2022-08-02T17:29:15.142Z,32.64
2022-08-02T17:32:02.506Z,33.62
2022-08-02T17:34:36.146Z,34.32
2022-08-02T17:37:07.838Z,32.82
2022-08-02T17:39:44.146Z,33.26
2022-08-02T17:42:20.093Z,32.38
2022-08-02T17:44:50.711Z,31.50
2022-08-02T17:47:19.303Z,30.32
2022-08-02T17:49:48.386Z,30.28
2022-08-02T17:52:51.107Z,29.91
2022-08-02T17:55:07.025Z,29.66
2022-08-02T18:00:24.708Z,29.13
2022-08-02T18:02:55.688Z,28.73
2022-08-02T18:05:40.023Z,28.49
2022-08-02T18:08:18.353Z,27.96
2022-08-02T18:10:50.018Z,27.95
2022-08-02T18:13:17.840Z,27.85
2022-08-02T18:15:45.982Z,27.73
2022-08-02T18:18:14.571Z,27.59
2022-08-02T18:20:44.830Z,27.44
2022-08-02T18:23:15.877Z,27.32
2022-08-02T18:25:45.880Z,27.23
2022-08-02T18:28:17.063Z,26.95
2022-08-02T18:34:27.942Z,26.52
2022-08-02T18:36:55.825Z,26.34
2022-08-02T18:39:27.151Z,26.22
2022-08-02T18:42:02.029Z,25.97
2022-08-02T18:44:31.024Z,25.84
2022-08-02T18:46:59.579Z,25.24
2022-08-02T18:49:46.109Z,25.17
2022-08-02T18:52:16.152Z,25.52
2022-08-02T18:55:01.366Z,25.35
2022-08-02T18:58:16.974Z,25.31
2022-08-02T19:00:20.574Z,25.23
2022-08-02T19:02:54.092Z,25.16
2022-08-02T19:05:52.373Z,24.76
2022-08-02T19:08:12.849Z,24.33
2022-08-02T19:10:49.012Z,23.68
2022-08-02T19:13:18.607Z,23.19
2022-08-02T19:15:47.881Z,22.72
2022-08-02T19:18:15.908Z,22.54
2022-08-02T19:20:48.009Z,21.88
2022-08-02T19:23:18.895Z,21.61
2022-08-02T19:25:54.783Z,21.83
2022-08-02T19:28:26.318Z,21.69
2022-08-02T19:30:57.466Z,21.62
2022-08-02T19:34:04.784Z,21.17
2022-08-02T19:36:16.966Z,20.68
2022-08-02T19:38:49.183Z,20.61
2022-08-02T19:41:22.237Z,20.23
2022-08-02T19:47:38.460Z,19.72
2022-08-02T19:50:07.898Z,19.65
2022-08-02T19:52:38.021Z,20.72
2022-08-02T19:55:58.269Z,20.07
2022-08-02T19:57:59.717Z,19.71
2022-08-02T20:00:28.038Z,20.07
2022-08-02T20:02:56.063Z,20.08
2022-08-02T20:05:28.251Z,19.81
2022-08-02T20:07:57.659Z,19.39
2022-08-02T20:10:25.391Z,19.13
2022-08-02T20:12:54.634Z,19.46
2022-08-02T20:15:55.812Z,19.19
2022-08-02T20:18:15.937Z,19.34
2022-08-02T20:20:55.088Z,19.56
2022-08-02T20:23:32.587Z,19.25
2022-08-02T20:26:02.896Z,18.90
2022-08-02T20:28:31.972Z,18.72
2022-08-02T20:31:07.107Z,18.71
2022-08-02T20:33:37.100Z,18.68
2022-08-02T20:36:24.575Z,19.06
2022-08-02T20:38:52.763Z,18.91
2022-08-02T20:41:23.853Z,18.82
2022-08-02T20:44:05.504Z,18.73
2022-08-02T20:46:48.848Z,18.80
2022-08-02T20:49:23.325Z,18.77
2022-08-02T20:51:52.754Z,18.91
2022-08-02T20:54:23.045Z,18.77
2022-08-02T20:56:51.736Z,18.51
2022-08-02T20:59:21.274Z,18.62
2022-08-02T21:01:57.522Z,18.56
2022-08-02T21:04:26.329Z,18.63
2022-08-02T21:06:55.840Z,18.63
2022-08-02T21:09:52.513Z,18.34
2022-08-02T21:12:12.951Z,18.13
2022-08-02T21:14:40.839Z,18.20
2022-08-02T21:17:11.378Z,18.06
2022-08-02T21:19:46.019Z,18.19
2022-08-02T21:22:15.609Z,18.14
2022-08-02T21:24:45.770Z,18.08
2022-08-02T21:27:51.884Z,18.24
2022-08-02T21:30:03.359Z,18.24
2022-08-02T21:32:33.695Z,18.25
2022-08-02T21:35:01.802Z,18.21
2022-08-02T21:37:33.267Z,18.23
2022-08-02T21:40:13.646Z,17.92
2022-08-02T21:42:41.580Z,17.73
2022-08-02T21:45:17.020Z,17.59
2022-08-02T21:47:51.744Z,17.55
2022-08-02T21:50:19.633Z,17.76
2022-08-02T21:52:52.298Z,17.90
2022-08-02T21:56:00.263Z,17.82
2022-08-02T21:58:23.520Z,17.93
2022-08-02T22:00:51.652Z,17.86
2022-08-02T22:03:24.646Z,17.89
2022-08-02T22:05:57.548Z,17.88
2022-08-02T22:09:42.272Z,17.85
2022-08-02T22:16:06.174Z,17.85
2022-08-02T22:18:35.647Z,17.76
2022-08-02T22:21:14.462Z,17.73
2022-08-02T22:23:50.352Z,17.96
2022-08-02T22:26:19.842Z,18.36
2022-08-02T22:28:50.522Z,18.28
2022-08-02T22:31:41.052Z,18.06
2022-08-02T22:34:26.600Z,17.83
2022-08-02T22:37:01.784Z,17.73
2022-08-02T22:39:37.068Z,17.71
2022-08-02T22:42:25.833Z,17.59
2022-08-02T22:44:53.748Z,17.46
2022-08-02T22:47:22.370Z,17.44
2022-08-02T22:49:59.439Z,17.25
2022-08-02T22:52:28.085Z,17.15
2022-08-02T22:54:56.041Z,17.13
2022-08-02T22:57:30.677Z,17.29
2022-08-02T22:58:36.283Z,35.90
2022-08-02T22:58:48.666Z,29.12
2022-08-02T22:59:12.607Z,17.71
2022-08-02T22:59:59.431Z,17.21
2022-08-02T23:02:27.201Z,17.17
2022-08-02T23:04:57.789Z,17.16
2022-08-02T23:07:27.143Z,17.32
2022-08-02T23:09:55.232Z,17.14
2022-08-02T23:12:23.594Z,17.00
2022-08-02T23:14:52.264Z,17.10
2022-08-02T23:17:38.228Z,16.99
2022-08-02T23:20:09.687Z,17.01
2022-08-02T23:22:38.140Z,17.12
2022-08-02T23:25:07.940Z,17.31
2022-08-02T23:27:36.117Z,16.94
2022-08-02T23:30:11.270Z,17.06
2022-08-02T23:32:39.916Z,17.14
2022-08-02T23:35:10.665Z,17.13
2022-08-02T23:38:00.489Z,17.09
2022-08-02T23:40:40.707Z,16.93
2022-08-02T23:43:13.866Z,16.87
2022-08-02T23:45:44.086Z,16.69
2022-08-02T23:48:12.959Z,16.79
2022-08-02T23:50:42.303Z,17.00
2022-08-02T23:53:11.676Z,17.18
2022-08-02T23:55:39.673Z,16.81
2022-08-02T23:58:07.523Z,17.24
